Time;durP1;ratioP1;P1;durP2;ratioP2;P2;SDS_P1;SDS_P2;PMS_P1;PMS_P2;Temp;Humidity;BMP_temperature;BMP_pressure;BME280_temperature;BME280_humidity;BME280_pressure;Samples;Min_cycle;Max_cycle;Signal;HPM_P1;HPM_P2
2021/12/05 00:17:08;;;;;;;29.30;15.67;;;;;;;2.79;64.48;99461.47;5469963;32;35142;-69
2021/12/05 00:17:47;;;;;;;33.07;17.10;;;;;;;3.25;64.99;99452.63;5492787;32;34870;-68
2021/12/05 00:24:22;;;;;;;36.80;17.27;;;;;;;2.29;67.83;99466.00;5485512;32;34212;-68
2021/12/05 00:27:31;;;;;;;37.47;18.10;;;;;;;2.78;67.43;99462.38;5469134;32;33921;-68
2021/12/05 00:34:31;;;;;;;35.30;17.83;;;;;;;3.55;63.27;99460.56;5463206;32;34007;-68
2021/12/05 01:16:58;;;;;;;36.57;18.73;;;;;;;1.63;72.67;99459.47;5489253;32;33832;-67
2021/12/05 01:20:03;;;;;;;37.45;20.25;;;;;;;2.41;70.00;99460.56;5491723;32;34466;-68
2021/12/05 01:23:20;;;;;;;34.23;18.93;;;;;;;2.40;70.92;99453.66;5501193;32;34722;-68
2021/12/05 01:29:40;;;;;;;38.03;19.77;;;;;;;1.99;72.21;99441.50;5485463;32;34751;-67
2021/12/05 01:39:30;;;;;;;36.43;19.93;;;;;;;1.96;73.46;99445.91;5473071;32;34724;-68
2021/12/05 01:56:03;;;;;;;40.23;20.63;;;;;;;3.04;70.22;99425.44;5470412;32;34414;-69
2021/12/05 02:15:57;;;;;;;40.23;21.67;;;;;;;1.87;77.20;99405.50;5484257;32;34826;-67
2021/12/05 02:41:53;;;;;;;40.83;21.20;;;;;;;1.99;77.51;99389.69;5497649;32;34217;-69
2021/12/05 02:44:55;;;;;;;;;;;;;;;2.33;75.73;99378.63;5489413;32;36669;-68
2021/12/05 02:47:58;;;;;;;39.83;20.93;;;;;;;2.16;76.38;99372.06;5498850;32;34036;-68
2021/12/05 02:51:09;;;;;;;35.70;19.90;;;;;;;1.76;77.00;99386.72;5476579;32;34001;-68
2021/12/05 02:54:17;;;;;;;41.17;21.03;;;;;;;2.32;76.76;99384.69;5499085;32;34084;-68
2021/12/05 02:57:33;;;;;;;41.00;21.13;;;;;;;1.68;77.82;99388.59;5477537;32;34579;-68
2021/12/05 03:00:53;;;;;;;43.00;21.67;;;;;;;1.67;78.81;99384.28;5467949;32;34023;-68
2021/12/05 03:03:58;;;;;;;47.70;22.67;;;;;;;1.69;79.02;99373.03;5489274;32;34118;-69
2021/12/05 03:07:05;;;;;;;43.63;21.67;;;;;;;1.79;79.13;99387.50;5470168;32;35432;-68
2021/12/05 03:10:10;;;;;;;43.17;21.87;;;;;;;1.67;79.07;99386.88;5479980;32;34418;-68
2021/12/05 03:13:13;;;;;;;42.93;21.73;;;;;;;2.65;75.74;99391.75;5473456;32;33995;-68
2021/12/05 03:16:18;;;;;;;41.07;22.23;;;;;;;2.35;75.63;99387.22;5496906;32;35178;-68
2021/12/05 03:19:22;;;;;;;40.87;21.50;;;;;;;1.78;78.04;99390.97;5490961;32;33709;-67
2021/12/05 03:22:24;;;;;;;46.03;22.57;;;;;;;2.70;75.13;99369.13;5496885;32;34141;-69
2021/12/05 03:25:26;;;;;;;46.27;22.87;;;;;;;3.55;70.97;99377.44;5503821;32;34786;-69
2021/12/05 03:28:29;;;;;;;38.80;20.77;;;;;;;3.86;68.40;99382.63;5483946;32;33757;-68
2021/12/05 03:31:33;;;;;;;43.83;21.98;;;;;;;2.87;72.94;99381.69;5465395;32;32960;-68
2021/12/05 03:34:35;;;;;;;40.20;20.73;;;;;;;2.18;75.69;99374.59;5491628;32;34603;-68
2021/12/05 03:37:38;;;;;;;46.43;22.83;;;;;;;1.98;77.66;99374.16;5469979;32;149330;-67
2021/12/05 03:40:41;;;;;;;45.50;22.87;;;;;;;1.59;79.95;99389.59;5467115;32;34712;-69
2021/12/05 03:43:48;;;;;;;46.53;22.97;;;;;;;2.82;75.22;99385.28;5473779;32;34437;-68
2021/12/05 03:46:52;;;;;;;46.87;22.27;;;;;;;2.63;74.42;99393.50;5485305;32;34420;-69
2021/12/05 03:49:56;;;;;;;45.50;22.13;;;;;;;3.30;72.42;99387.59;5493088;32;34711;-69
2021/12/05 03:52:58;;;;;;;45.17;21.62;;;;;;;3.79;69.49;99389.72;5493224;32;33885;-68
2021/12/05 03:56:05;;;;;;;45.43;23.27;;;;;;;1.83;77.28;99388.28;5487179;32;33713;-67
2021/12/05 03:59:10;;;;;;;47.73;23.70;;;;;;;2.47;75.82;99383.50;5495010;32;33990;-68
2021/12/05 04:02:12;;;;;;;41.43;21.97;;;;;;;2.01;76.90;99393.13;5489439;32;34043;-67
2021/12/05 04:05:17;;;;;;;44.80;23.27;;;;;;;1.81;78.27;99382.31;5471799;32;33248;-68
2021/12/05 04:08:23;;;;;;;46.83;24.23;;;;;;;2.60;75.90;99393.56;5489946;32;34866;-68
2021/12/05 04:11:32;;;;;;;49.30;23.97;;;;;;;2.70;74.24;99382.13;5472345;32;34819;-68
2021/12/05 04:14:41;;;;;;;49.73;24.37;;;;;;;2.64;75.64;99374.47;5467499;32;34205;-69
2021/12/05 04:17:43;;;;;;;43.63;23.13;;;;;;;2.92;74.55;99384.19;5490007;32;35698;-68
2021/12/05 04:20:47;;;;;;;47.93;24.77;;;;;;;2.64;75.36;99382.25;5478338;32;32690;-69
2021/12/05 04:23:49;;;;;;;41.95;21.73;;;;;;;2.92;74.39;99373.81;5474620;32;34750;-68
2021/12/05 04:26:52;;;;;;;46.83;24.30;;;;;;;3.48;71.91;99368.94;5492829;32;33989;-68
2021/12/05 04:29:59;;;;;;;48.57;23.77;;;;;;;2.41;75.38;99374.97;5481267;32;34271;-67
2021/12/05 04:33:02;;;;;;;46.33;23.47;;;;;;;3.33;73.15;99374.50;5485853;32;34065;-68
2021/12/05 04:36:05;;;;;;;45.10;23.07;;;;;;;3.36;72.64;99382.25;5478025;32;35452;-68
2021/12/05 04:39:09;;;;;;;45.97;22.53;;;;;;;3.76;71.13;99380.28;5485206;32;32893;-68
2021/12/05 04:42:11;;;;;;;45.30;23.00;;;;;;;3.96;69.03;99376.28;5493673;32;33120;-67
2021/12/05 04:45:20;;;;;;;45.40;22.77;;;;;;;3.22;72.18;99387.75;5482685;32;34903;-68
2021/12/05 04:48:23;;;;;;;42.70;21.77;;;;;;;3.14;72.42;99390.56;5467744;32;32977;-68
2021/12/05 04:51:31;;;;;;;43.35;22.98;;;;;;;3.99;70.14;99384.84;5468750;32;34127;-68
2021/12/05 04:54:34;;;;;;;46.83;22.23;;;;;;;3.58;69.43;99388.56;5487211;32;35124;-68
2021/12/05 04:57:37;;;;;;;43.37;22.90;;;;;;;2.74;74.52;99377.69;5492599;32;33238;-67
2021/12/05 05:00:42;;;;;;;45.85;23.67;;;;;;;2.61;75.01;99377.13;5471303;32;35526;-67
2021/12/05 05:03:46;;;;;;;49.97;25.70;;;;;;;2.87;76.02;99376.50;5453637;32;36403;-68
2021/12/05 05:06:51;;;;;;;44.63;23.53;;;;;;;2.19;77.88;99373.75;5472854;32;33010;-68
2021/12/05 05:09:59;;;;;;;45.33;23.02;;;;;;;2.32;77.87;99371.72;5478010;32;34171;-68
2021/12/05 05:13:01;;;;;;;46.33;24.07;;;;;;;2.07;78.67;99387.81;5487071;32;34412;-67
2021/12/05 05:16:06;;;;;;;52.77;25.97;;;;;;;2.37;77.58;99373.31;5472071;32;34040;-68
2021/12/05 05:19:11;;;;;;;46.57;23.87;;;;;;;2.40;77.70;99367.25;5478470;32;34359;-68
2021/12/05 05:22:28;;;;;;;47.43;23.23;;;;;;;3.03;75.56;99371.81;5499448;32;34584;-68
2021/12/05 05:49:10;;;;;;;44.97;22.00;;;;;;;4.23;69.77;99387.62;5495492;32;34324;-69
2021/12/05 05:52:14;;;;;;;46.42;22.77;;;;;;;3.82;71.13;99405.25;5485502;32;34625;-68
2021/12/05 05:55:17;;;;;;;49.60;23.93;;;;;;;3.77;69.78;99397.56;5464454;32;35103;-68
2021/12/05 05:58:27;;;;;;;50.53;23.03;;;;;;;2.20;77.23;99401.38;5500104;32;33005;-69
2021/12/05 06:04:39;;;;;;;44.47;23.30;;;;;;;2.22;78.79;99397.00;5497859;32;33978;-68
2021/12/05 06:07:43;;;;;;;53.37;27.03;;;;;;;2.76;78.11;99401.00;5483196;32;34831;-68
2021/12/05 06:10:46;;;;;;;49.93;23.73;;;;;;;2.70;77.33;99400.28;5483036;32;33785;-69
2021/12/05 06:13:51;;;;;;;48.22;24.58;;;;;;;2.54;77.98;99406.69;5485252;32;34763;-68
2021/12/05 06:16:54;;;;;;;46.57;24.53;;;;;;;2.72;77.28;99411.47;5477912;32;35116;-68
2021/12/05 06:19:58;;;;;;;46.45;23.67;;;;;;;3.08;76.35;99410.62;5459187;32;34448;-68
2021/12/05 06:23:01;;;;;;;50.83;25.05;;;;;;;3.20;75.12;99415.53;5478460;32;33916;-68
2021/12/05 06:26:05;;;;;;;47.97;24.33;;;;;;;3.16;73.65;99409.56;5498556;32;34715;-67
2021/12/05 06:29:15;;;;;;;52.70;24.60;;;;;;;2.74;76.12;99408.81;5454742;32;34432;-68
2021/12/05 06:42:35;;;;;;;50.97;25.00;;;;;;;2.65;75.70;99419.44;5505770;32;33076;-67
2021/12/05 06:46:01;;;;;;;54.53;26.10;;;;;;;2.07;79.15;99431.88;5471544;32;32952;-68
2021/12/05 06:49:05;;;;;;;55.07;25.70;;;;;;;1.98;79.04;99426.84;5487649;32;35321;-68
2021/12/05 06:52:07;;;;;;;59.23;26.47;;;;;;;2.79;76.61;99419.13;5491726;32;33917;-68
2021/12/05 06:55:11;;;;;;;58.13;26.97;;;;;;;2.95;76.02;99428.22;5475004;32;34107;-68
2021/12/05 06:58:14;;;;;;;60.22;27.48;;;;;;;2.91;75.10;99419.69;5483368;32;33988;-68
2021/12/05 07:01:16;;;;;;;53.63;25.23;;;;;;;3.05;74.34;99421.09;5468968;32;35214;-69
2021/12/05 07:07:43;;;;;;;55.20;27.30;;;;;;;2.37;78.91;99445.94;5485841;32;34690;-68
2021/12/05 07:14:13;;;;;;;63.97;28.30;;;;;;;2.35;78.59;99444.28;5483885;32;34374;-68
2021/12/05 07:40:29;;;;;;;49.20;24.33;;;;;;;4.61;68.78;99428.97;5473870;32;34463;-69
2021/12/05 07:43:32;;;;;;;48.50;25.60;;;;;;;4.34;69.01;99433.25;5482576;32;34113;-69
2021/12/05 07:46:37;;;;;;;51.30;25.57;;;;;;;3.52;73.73;99430.31;5473034;32;34720;-69
2021/12/05 07:49:40;;;;;;;51.93;26.73;;;;;;;4.50;69.35;99427.59;5493545;32;34050;-68
2021/12/05 07:52:46;;;;;;;54.25;26.45;;;;;;;4.74;67.34;99441.62;5496986;32;35598;-69
2021/12/05 07:55:55;;;;;;;53.60;23.47;;;;;;;4.50;68.11;99457.06;5472938;32;32614;-68
2021/12/05 08:15:59;;;;;;;52.30;23.73;;;;;;;3.08;75.77;99459.94;5487465;32;34042;-68
2021/12/05 08:19:02;;;;;;;46.03;23.30;;;;;;;3.61;72.82;99457.81;5493035;32;33222;-68
2021/12/05 08:22:05;;;;;;;48.97;24.50;;;;;;;2.32;79.26;99465.94;5475347;32;37785;-68
2021/12/05 08:25:11;;;;;;;46.73;24.17;;;;;;;3.13;78.28;99465.91;5465442;32;33933;-68
2021/12/05 09:24:41;;;;;;;44.23;22.50;;;;;;;2.75;74.68;99477.13;5494907;32;34907;-68
2021/12/05 10:08:18;;;;;;;45.53;22.50;;;;;;;3.60;73.52;99427.50;5503342;32;34318;-68
2021/12/05 10:14:43;;;;;;;44.87;24.23;;;;;;;3.16;76.14;99419.94;5496986;32;33489;-69
2021/12/05 10:38:10;;;;;;;52.20;23.12;;;;;;;2.69;78.57;99434.88;5482510;32;34027;-70
2021/12/05 10:44:43;;;;;;;47.80;24.43;;;;;;;3.04;78.31;99419.41;5497957;32;34699;-68
2021/12/05 10:47:49;;;;;;;48.57;23.90;;;;;;;3.61;76.30;99422.28;5492255;32;34147;-69
2021/12/05 10:50:58;;;;;;;50.10;22.73;;;;;;;3.97;74.78;99420.44;5484706;32;33979;-70
2021/12/05 10:54:04;;;;;;;52.37;23.27;;;;;;;3.19;76.81;99412.06;5478114;32;33816;-68
2021/12/05 10:57:09;;;;;;;49.63;23.73;;;;;;;3.42;76.71;99415.84;5491381;32;34113;-69
2021/12/05 11:00:13;;;;;;;58.83;24.73;;;;;;;3.23;77.24;99411.12;5483222;32;34204;-69
2021/12/05 11:03:20;;;;;;;52.30;24.23;;;;;;;2.90;77.98;99410.19;5477957;32;34207;-69
2021/12/05 11:06:27;;;;;;;54.77;23.23;;;;;;;3.04;77.30;99401.22;5499772;32;34632;-68
2021/12/05 11:09:31;;;;;;;49.23;24.13;;;;;;;3.14;79.38;99395.75;5463102;32;34311;-68
2021/12/05 11:12:35;;;;;;;51.90;23.87;;;;;;;2.64;79.14;99403.00;5502300;32;32577;-69
2021/12/05 11:15:38;;;;;;;53.40;24.50;;;;;;;2.89;79.38;99400.69;5476980;32;35081;-70
2021/12/05 11:18:45;;;;;;;97.25;38.70;;;;;;;2.23;81.31;99409.06;5465279;32;34666;-69
2021/12/05 11:21:57;;;;;;;59.87;27.57;;;;;;;2.95;80.17;99397.94;5484949;32;34561;-68
2021/12/05 11:25:10;;;;;;;56.33;25.73;;;;;;;2.96;79.79;99384.09;5478968;32;33908;-68
2021/12/05 11:28:18;;;;;;;56.57;24.83;;;;;;;3.51;77.42;99381.84;5501529;32;34833;-70
2021/12/05 11:31:28;;;;;;;61.53;27.13;;;;;;;2.73;79.27;99391.56;5482751;32;34092;-68
2021/12/05 11:34:31;;;;;;;57.33;25.90;;;;;;;3.55;77.22;99398.22;5492615;32;35145;-68
2021/12/05 11:37:55;;;;;;;61.90;27.83;;;;;;;2.18;82.34;99410.91;5487381;32;33869;-69
2021/12/05 11:41:06;;;;;;;64.70;26.85;;;;;;;2.27;82.72;99399.50;5493660;32;35109;-69
2021/12/05 11:44:16;;;;;;;64.57;26.93;;;;;;;2.21;82.66;99397.91;5486416;32;34617;-68
2021/12/05 11:47:21;;;;;;;67.93;26.87;;;;;;;2.40;82.08;99390.56;5490898;32;34079;-68
2021/12/05 11:50:31;;;;;;;64.10;27.70;;;;;;;2.04;84.33;99395.62;5490127;32;34795;-68
2021/12/05 11:53:42;;;;;;;65.00;25.30;;;;;;;2.49;83.36;99392.09;5484144;32;32549;-68
2021/12/05 11:56:50;;;;;;;66.53;26.97;;;;;;;2.06;83.73;99399.06;5484147;32;35179;-69
2021/12/05 11:59:53;;;;;;;58.63;25.10;;;;;;;3.12;81.26;99396.69;5494886;32;34225;-68
2021/12/05 12:02:56;;;;;;;58.55;26.73;;;;;;;2.51;81.72;99401.53;5493183;32;34331;-68
2021/12/05 12:05:59;;;;;;;61.40;25.93;;;;;;;2.73;81.71;99391.56;5495437;32;33859;-69
2021/12/05 12:09:03;;;;;;;63.38;25.40;;;;;;;2.28;84.03;99378.72;5483542;32;34473;-69
2021/12/05 12:12:06;;;;;;;59.42;24.45;;;;;;;2.78;83.01;99383.69;5482067;32;35511;-71
2021/12/05 12:15:08;;;;;;;57.17;24.43;;;;;;;2.39;83.26;99392.31;5484411;32;33149;-69
2021/12/05 12:18:18;;;;;;;55.07;24.80;;;;;;;3.11;80.58;99382.00;5467025;32;34717;-69
2021/12/05 12:21:27;;;;;;;59.70;25.77;;;;;;;2.48;82.04;99393.84;5472694;32;35217;-69
2021/12/05 12:24:30;;;;;;;61.60;26.80;;;;;;;3.13;80.87;99396.66;5478436;32;34017;-69
2021/12/05 12:27:33;;;;;;;61.45;27.52;;;;;;;3.23;80.08;99410.28;5493248;32;33985;-68
2021/12/05 12:30:42;;;;;;;56.47;24.77;;;;;;;3.99;75.91;99396.97;5484754;32;34188;-69
2021/12/05 12:33:53;;;;;;;59.40;25.73;;;;;;;3.70;77.38;99390.00;5495546;32;33971;-69
2021/12/05 12:37:02;;;;;;;51.53;23.73;;;;;;;3.65;77.34;99386.66;5474417;32;36259;-69
2021/12/05 12:40:05;;;;;;;56.77;25.43;;;;;;;3.44;77.62;99382.88;5476417;32;35391;-70
2021/12/05 12:43:28;;;;;;;50.10;22.80;;;;;;;3.54;78.29;99371.34;5497705;32;36313;-68
2021/12/05 12:46:42;;;;;;;55.70;29.63;;;;;;;3.62;77.66;99381.56;5503433;32;34795;-68
2021/12/05 12:49:45;;;;;;;63.50;27.73;;;;;;;3.83;77.68;99374.91;5484601;32;35958;-70
2021/12/05 12:53:02;;;;;;;56.17;24.83;;;;;;;3.73;76.70;99379.50;5489365;32;35451;-69
2021/12/05 12:56:10;;;;;;;55.77;23.40;;;;;;;3.45;78.79;99375.06;5493990;32;35103;-69
2021/12/05 12:59:15;;;;;;;53.27;23.97;;;;;;;3.21;79.25;99384.31;5491430;32;34820;-68
2021/12/05 13:05:54;;;;;;;67.03;25.50;;;;;;;3.34;80.30;99373.63;5490304;32;34448;-68
2021/12/05 13:12:39;;;;;;;57.00;25.05;;;;;;;2.79;81.52;99362.88;5488011;32;33312;-68
2021/12/05 13:15:44;;;;;;;75.83;29.50;;;;;;;2.49;83.12;99355.78;5476965;32;35595;-70
2021/12/05 13:18:52;;;;;;;;;;;;;;;2.47;83.01;99352.38;5500866;32;34146;-68
2021/12/05 13:22:04;;;;;;;69.53;28.17;;;;;;;3.31;80.56;99352.94;5477619;32;34967;-68
2021/12/05 13:25:09;;;;;;;71.80;28.90;;;;;;;3.35;79.19;99349.34;5482528;32;34788;-69
2021/12/05 13:28:33;;;;;;;70.43;27.13;;;;;;;2.62;81.53;99349.44;5483247;32;34399;-69
2021/12/05 13:32:08;;;;;;;69.93;26.17;;;;;;;3.20;80.81;99340.22;5472550;32;34188;-69
2021/12/05 13:35:12;;;;;;;75.57;25.47;;;;;;;3.54;79.46;99332.38;5484197;32;33213;-68
2021/12/05 13:38:40;;;;;;;78.57;28.45;;;;;;;3.05;79.96;99323.28;5473811;32;34922;-69
2021/12/05 13:41:59;;;;;;;66.80;26.50;;;;;;;2.82;82.82;99325.59;5496908;32;33621;-69
2021/12/05 13:45:07;;;;;;;71.43;26.63;;;;;;;3.05;82.71;99320.69;5487350;32;34066;-68
2021/12/05 13:48:15;;;;;;;76.57;27.13;;;;;;;2.42;83.94;99321.38;5462265;32;34846;-69
2021/12/05 13:51:23;;;;;;;75.60;27.27;;;;;;;2.92;82.64;99316.72;5477510;32;34087;-69
2021/12/05 13:54:28;;;;;;;70.93;27.17;;;;;;;3.93;78.38;99296.62;5478109;32;33568;-69
2021/12/05 13:57:30;;;;;;;80.30;29.02;;;;;;;3.11;80.87;99312.75;5479369;32;35277;-69
2021/12/05 14:00:40;;;;;;;90.33;29.13;;;;;;;3.67;79.92;99320.78;5474090;32;35056;-69
2021/12/05 14:03:55;;;;;;;85.10;28.87;;;;;;;3.78;77.70;99329.09;5482006;32;34426;-68
2021/12/05 14:06:58;;;;;;;68.67;26.63;;;;;;;3.43;78.27;99334.44;5487227;32;36060;-69
2021/12/05 14:10:03;;;;;;;66.18;26.87;;;;;;;4.32;75.80;99328.41;5476893;32;34876;-68
2021/12/05 14:13:06;;;;;;;71.03;27.27;;;;;;;3.41;79.44;99341.38;5468403;32;37941;-69
2021/12/05 14:16:09;;;;;;;82.88;28.92;;;;;;;3.03;81.02;99353.66;5472904;32;34916;-69
2021/12/05 14:19:16;;;;;;;78.97;28.77;;;;;;;3.16;80.53;99355.03;5474330;32;34457;-68
2021/12/05 14:22:20;;;;;;;70.77;27.40;;;;;;;3.23;80.85;99353.13;5499403;32;35519;-68
2021/12/05 14:25:25;;;;;;;73.53;27.63;;;;;;;3.76;78.17;99338.69;5462884;32;33896;-69
2021/12/05 14:28:28;;;;;;;79.37;28.13;;;;;;;3.59;79.20;99333.09;5503638;32;34505;-68
2021/12/05 14:31:36;;;;;;;83.53;29.80;;;;;;;3.66;79.90;99350.22;5482494;32;35638;-68
2021/12/05 14:34:40;;;;;;;88.47;30.50;;;;;;;3.97;77.05;99347.63;5476925;32;34177;-67
2021/12/05 14:37:46;;;;;;;84.03;29.67;;;;;;;2.63;84.36;99357.16;5491325;32;34528;-68
2021/12/05 14:40:50;;;;;;;79.03;28.13;;;;;;;3.55;79.82;99365.28;5490488;32;35546;-69
2021/12/05 14:43:56;;;;;;;82.10;30.43;;;;;;;3.87;79.00;99367.00;5472184;32;33398;-69
2021/12/05 14:47:10;;;;;;;84.03;30.03;;;;;;;2.79;82.29;99375.00;5462205;32;33914;-69
2021/12/05 14:50:14;;;;;;;;;;;;;;;3.50;81.50;99367.16;5490059;32;35041;-69
2021/12/05 14:53:18;;;;;;;86.72;31.05;;;;;;;3.03;81.90;99371.81;5470214;32;34571;-69
2021/12/05 14:56:32;;;;;;;86.95;29.85;;;;;;;3.28;80.72;99371.19;5493133;32;34139;-68
2021/12/05 14:59:35;;;;;;;80.87;29.33;;;;;;;2.53;82.98;99380.78;5497425;32;33889;-69
2021/12/05 15:02:38;;;;;;;80.70;27.60;;;;;;;3.02;81.95;99377.03;5481520;32;32588;-69
2021/12/05 15:05:47;;;;;;;78.87;28.47;;;;;;;3.34;80.52;99376.22;5481632;32;34601;-69
2021/12/05 15:08:50;;;;;;;82.40;30.00;;;;;;;3.09;79.84;99381.16;5474441;32;34465;-69
2021/12/05 15:12:00;;;;;;;92.03;30.73;;;;;;;2.89;82.67;99374.72;5468517;32;35020;-69
2021/12/05 15:15:10;;;;;;;78.70;31.47;;;;;;;3.44;80.82;99377.69;5482070;32;34855;-69
2021/12/05 15:18:14;;;;;;;77.63;29.93;;;;;;;3.94;77.94;99365.09;5491912;32;34443;-69
2021/12/05 15:21:17;;;;;;;85.73;30.00;;;;;;;3.14;80.63;99372.38;5496600;32;34821;-69
2021/12/05 15:24:22;;;;;;;88.20;30.97;;;;;;;2.88;81.40;99383.41;5475597;32;34927;-70
2021/12/05 15:27:27;;;;;;;78.53;30.13;;;;;;;3.05;81.84;99376.97;5493850;32;33798;-69
2021/12/05 15:30:39;;;;;;;84.17;29.60;;;;;;;2.87;81.60;99375.66;5483399;32;33888;-69
2021/12/05 15:33:41;;;;;;;75.40;28.57;;;;;;;2.71;82.08;99360.47;5480269;32;35229;-67
2021/12/05 15:36:43;;;;;;;75.47;28.37;;;;;;;3.52;79.01;99370.53;5486059;32;34923;-68
2021/12/05 15:39:48;;;;;;;83.00;31.83;;;;;;;3.41;80.79;99363.03;5489698;32;34095;-69
2021/12/05 15:42:51;;;;;;;78.17;30.53;;;;;;;2.54;83.42;99349.62;5496607;32;34061;-68
2021/12/05 15:45:55;;;;;;;73.17;29.47;;;;;;;2.76;83.28;99357.75;5455561;32;33996;-70
2021/12/05 15:48:58;;;;;;;74.43;28.70;;;;;;;3.59;79.83;99360.84;5487695;32;34965;-68
2021/12/05 15:52:01;;;;;;;75.80;29.40;;;;;;;3.70;77.48;99369.19;5497691;32;35074;-69
2021/12/05 15:55:09;;;;;;;82.07;28.30;;;;;;;3.64;78.09;99371.97;5474459;32;34597;-70
2021/12/05 15:58:24;;;;;;;71.83;28.00;;;;;;;2.75;82.12;99379.38;5485094;32;33974;-69
2021/12/05 16:01:27;;;;;;;75.00;28.70;;;;;;;2.99;80.66;99389.19;5486789;32;35151;-69
2021/12/05 16:04:31;;;;;;;76.17;29.23;;;;;;;3.52;80.22;99375.75;5490015;32;34236;-69
2021/12/05 16:07:33;;;;;;;71.13;28.30;;;;;;;3.20;82.46;99366.19;5485517;32;35589;-68
2021/12/05 16:10:39;;;;;;;73.70;28.93;;;;;;;3.24;80.83;99370.41;5491980;32;34046;-70
2021/12/05 16:13:42;;;;;;;81.60;29.53;;;;;;;2.97;82.29;99362.44;5472673;32;34726;-69
2021/12/05 16:16:45;;;;;;;75.07;28.95;;;;;;;3.50;80.13;99361.94;5499379;32;34826;-69
2021/12/05 16:20:07;;;;;;;71.57;27.63;;;;;;;3.78;79.00;99357.69;5472507;32;34447;-69
2021/12/05 16:23:22;;;;;;;75.63;27.30;;;;;;;3.46;80.81;99339.53;5495721;32;36630;-69
2021/12/05 16:26:29;;;;;;;68.97;26.57;;;;;;;3.11;81.49;99351.69;5479829;32;36474;-69
2021/12/05 16:29:32;;;;;;;64.00;24.50;;;;;;;3.91;77.75;99362.56;5498423;32;34208;-68
2021/12/05 16:32:38;;;;;;;75.80;26.37;;;;;;;4.12;76.81;99379.28;5492105;32;35050;-68
2021/12/05 16:35:51;;;;;;;63.17;25.20;;;;;;;3.34;81.73;99390.06;5485132;32;34544;-68
2021/12/05 16:38:53;;;;;;;63.60;24.70;;;;;;;3.89;78.93;99390.34;5492555;32;35245;-69
2021/12/05 16:42:17;;;;;;;63.17;24.77;;;;;;;2.78;81.94;99397.50;5497283;32;32840;-69
2021/12/05 16:45:21;;;;;;;66.53;24.37;;;;;;;3.13;83.50;99414.81;5487203;32;33975;-69
2021/12/05 16:48:24;;;;;;;72.50;25.23;;;;;;;2.83;84.04;99420.72;5462167;32;35518;-70
2021/12/05 16:51:44;;;;;;;66.67;26.50;;;;;;;3.36;81.28;99398.69;5472133;32;32944;-68
2021/12/05 16:55:24;;;;;;;83.37;29.17;;;;;;;2.57;83.75;99383.25;5481508;32;34774;-69
2021/12/05 16:58:26;;;;;;;70.87;26.87;;;;;;;2.95;83.82;99395.34;5468909;32;36068;-68
2021/12/05 17:01:29;;;;;;;82.17;27.77;;;;;;;3.30;81.80;99406.63;5473634;32;34197;-69
2021/12/05 17:04:58;;;;;;;79.85;27.17;;;;;;;2.99;83.45;99404.78;5490872;32;34934;-69
2021/12/05 17:08:13;;;;;;;79.53;29.17;;;;;;;3.29;81.95;99399.72;5501461;32;33974;-68
2021/12/05 17:11:18;;;;;;;80.13;26.77;;;;;;;3.41;81.53;99399.37;5493175;32;34870;-68
2021/12/05 17:14:24;;;;;;;73.30;28.50;;;;;;;3.70;80.29;99411.63;5491683;32;35238;-69
2021/12/05 17:17:32;;;;;;;74.37;27.63;;;;;;;4.12;76.90;99406.13;5474763;32;34158;-69
2021/12/05 17:20:42;;;;;;;77.30;28.20;;;;;;;3.49;81.34;99423.44;5476778;32;36317;-69
2021/12/05 17:23:51;;;;;;;81.70;27.30;;;;;;;3.14;81.33;99426.91;5476444;32;32970;-68
2021/12/05 17:26:57;;;;;;;70.90;27.23;;;;;;;2.55;83.62;99421.34;5502918;32;34908;-69
2021/12/05 17:30:04;;;;;;;67.83;26.47;;;;;;;2.97;81.48;99426.47;5476435;32;32352;-69
2021/12/05 17:33:06;;;;;;;77.20;25.47;;;;;;;3.80;80.79;99427.84;5499774;32;32965;-69
2021/12/05 17:36:42;;;;;;;72.33;26.87;;;;;;;2.48;83.90;99429.31;5470414;32;35249;-69
2021/12/05 17:39:45;;;;;;;79.37;29.70;;;;;;;3.37;81.86;99426.34;5483939;32;34792;-68
2021/12/05 17:42:47;;;;;;;71.62;25.33;;;;;;;2.53;86.61;99435.25;5501604;32;34908;-68
2021/12/05 17:45:51;;;;;;;74.33;27.90;;;;;;;3.02;85.48;99437.59;5463085;32;34063;-69
2021/12/05 17:48:54;;;;;;;79.43;26.33;;;;;;;3.11;83.88;99423.53;5470545;32;34132;-68
2021/12/05 17:51:58;;;;;;;72.60;26.23;;;;;;;3.28;82.74;99433.50;5477292;32;34306;-69
2021/12/05 17:55:06;;;;;;;72.17;26.43;;;;;;;3.41;82.65;99424.50;5497903;32;35041;-69
2021/12/05 17:58:37;;;;;;;68.07;24.80;;;;;;;2.55;85.74;99438.66;5480404;32;34095;-69
2021/12/05 18:05:06;;;;;;;60.27;24.53;;;;;;;3.34;84.18;99434.22;5497949;32;34072;-69
2021/12/05 18:08:14;;;;;;;57.10;23.97;;;;;;;3.48;80.37;99436.47;5480121;32;35058;-68
2021/12/05 18:11:22;;;;;;;60.10;24.73;;;;;;;2.69;84.24;99454.78;5471913;32;34453;-69
2021/12/05 18:14:24;;;;;;;64.27;25.77;;;;;;;2.88;84.79;99458.66;5479470;32;35238;-68
2021/12/05 18:17:27;;;;;;;59.93;23.30;;;;;;;3.47;82.30;99446.00;5480699;32;35250;-70
2021/12/05 18:20:31;;;;;;;57.60;23.30;;;;;;;3.74;80.81;99448.81;5499232;32;34762;-69
2021/12/05 18:23:34;;;;;;;56.40;24.37;;;;;;;3.21;81.28;99438.00;5492552;32;33834;-70
2021/12/05 18:26:38;;;;;;;57.45;24.30;;;;;;;3.44;82.94;99429.66;5500554;32;35121;-69
2021/12/05 18:29:40;;;;;;;63.15;24.15;;;;;;;3.40;82.00;99426.25;5495613;32;35481;-68
2021/12/05 18:32:44;;;;;;;62.00;24.63;;;;;;;3.49;80.03;99425.19;5497237;32;32828;-69
2021/12/05 18:35:48;;;;;;;61.25;23.83;;;;;;;3.29;81.87;99427.44;5482000;32;35139;-69
2021/12/05 18:38:51;;;;;;;59.73;24.93;;;;;;;3.09;81.76;99428.78;5451313;32;33841;-69
2021/12/05 18:41:56;;;;;;;57.95;23.77;;;;;;;3.45;82.79;99418.38;5503165;32;34062;-69
2021/12/05 18:45:01;;;;;;;54.53;23.87;;;;;;;3.46;80.58;99427.84;5488770;32;33925;-69
2021/12/05 18:48:04;;;;;;;54.43;23.83;;;;;;;2.79;82.79;99429.50;5487148;32;34979;-68
2021/12/05 18:51:06;;;;;;;61.10;24.67;;;;;;;2.72;84.63;99424.44;5489642;32;34750;-69
2021/12/05 18:54:09;;;;;;;59.73;24.60;;;;;;;2.90;83.91;99411.94;5476453;32;34370;-69
2021/12/05 18:57:15;;;;;;;54.97;24.13;;;;;;;2.87;85.45;99409.41;5485686;32;34498;-70
2021/12/05 19:00:27;;;;;;;62.37;25.30;;;;;;;2.76;84.78;99399.25;5490364;32;34498;-69
2021/12/05 19:07:02;;;;;;;58.07;23.67;;;;;;;2.98;84.47;99382.31;5496882;32;34682;-68
2021/12/05 19:13:26;;;;;;;60.87;24.40;;;;;;;2.66;84.98;99377.03;5498284;32;34581;-69
2021/12/05 19:16:29;;;;;;;51.10;23.10;;;;;;;3.43;84.21;99368.19;5478842;32;34412;-69
2021/12/05 19:19:33;;;;;;;54.83;24.20;;;;;;;3.11;83.63;99363.84;5483288;32;34004;-68
2021/12/05 19:22:38;;;;;;;55.42;23.52;;;;;;;2.70;84.97;99368.25;5491183;32;33911;-69
2021/12/05 19:25:42;;;;;;;55.83;23.33;;;;;;;2.82;84.65;99372.31;5480049;32;33845;-68
2021/12/05 19:28:44;;;;;;;55.70;24.25;;;;;;;2.80;84.00;99367.16;5496706;32;35407;-69
2021/12/05 19:31:48;;;;;;;55.83;24.27;;;;;;;3.35;82.69;99378.78;5467620;32;34021;-70
2021/12/05 19:34:51;;;;;;;57.77;24.83;;;;;;;2.58;82.78;99382.38;5497171;32;34234;-69
2021/12/05 19:37:54;;;;;;;55.00;23.93;;;;;;;3.27;83.08;99380.72;5493863;32;33868;-69
2021/12/05 19:41:00;;;;;;;50.47;22.83;;;;;;;2.74;83.20;99385.47;5498927;32;35190;-69
2021/12/05 19:44:04;;;;;;;54.70;23.37;;;;;;;3.16;83.11;99388.78;5491662;32;33916;-69
2021/12/05 19:47:07;;;;;;;48.43;22.30;;;;;;;2.28;86.14;99390.84;5484067;32;33995;-70
2021/12/05 19:50:13;;;;;;;53.50;24.47;;;;;;;2.15;86.94;99401.47;5497033;32;34708;-68
2021/12/05 19:53:16;;;;;;;55.67;24.63;;;;;;;2.30;86.46;99402.03;5479352;32;35657;-69
2021/12/05 19:56:20;;;;;;;49.23;22.80;;;;;;;2.88;84.66;99387.75;5476511;32;34765;-69
2021/12/05 19:59:22;;;;;;;;;;;;;;;3.04;82.88;99383.91;5480184;32;33998;-71
2021/12/05 20:02:24;;;;;;;49.70;22.20;;;;;;;2.80;83.85;99384.47;5491692;32;35127;-69
2021/12/05 20:05:30;;;;;;;57.87;24.67;;;;;;;2.68;83.77;99386.47;5478378;32;35649;-69
2021/12/05 20:08:34;;;;;;;49.23;23.90;;;;;;;3.23;83.66;99390.34;5483706;32;34188;-70
2021/12/05 20:11:38;;;;;;;48.03;22.40;;;;;;;2.91;81.95;99372.97;5504687;32;34955;-69
2021/12/05 20:14:40;;;;;;;46.47;23.08;;;;;;;2.85;83.23;99386.09;5477830;32;35181;-69
2021/12/05 20:17:44;;;;;;;47.03;21.97;;;;;;;3.23;83.44;99385.16;5488856;32;35242;-70